Kirtley, Texas
Current Conditions -  °F | °C
As of 5:15 PM on Thursday 20 Nov 2014 (Local Time) from KGYB Reporting Station
Light Rain Light Rain  
Wind Chill: 65°   Ceiling: 1600
Heat Index: 65°   Visibility: 10mi
Dew Point: 60°   Wind: 9mph
Humidity: 84%   Direction: 150°SSE
Pressure: 30.08"   Gusts: NA
Location:  30.0743°N, 97.1141°W
Report Text: KGYB 202315Z AUTO 15008KT 10SM -RA OVC016 18/16 A3008 RMK AO2 T01820155
Loading
Personal Weather Stations






























Interactive Weather Map New forecast layout! Learn more

10-Day Weather Forecast

Advertisements
Track Severe Weather on mobile